sensor_id;sensor_type;location;lat;lon;timestamp;P1;durP1;ratioP1;P2;durP2;ratioP2
12593;SDS011;6362;50.208;9.182;2022-09-16T00:01:47;5.05;;;1.08;;
12593;SDS011;6362;50.208;9.182;2022-09-16T00:04:12;2.65;;;1.00;;
12593;SDS011;6362;50.208;9.182;2022-09-16T00:06:38;6.72;;;1.75;;
12593;SDS011;6362;50.208;9.182;2022-09-16T00:09:03;4.10;;;1.00;;
12593;SDS011;6362;50.208;9.182;2022-09-16T00:11:30;3.80;;;1.10;;
12593;SDS011;6362;50.208;9.182;2022-09-16T00:13:58;4.47;;;1.10;;
12593;SDS011;6362;50.208;9.182;2022-09-16T00:16:24;2.63;;;1.30;;
12593;SDS011;6362;50.208;9.182;2022-09-16T00:18:52;6.60;;;1.20;;
12593;SDS011;6362;50.208;9.182;2022-09-16T00:21:19;4.80;;;1.40;;
12593;SDS011;6362;50.208;9.182;2022-09-16T00:23:44;2.70;;;1.20;;
12593;SDS011;6362;50.208;9.182;2022-09-16T00:26:10;3.17;;;1.10;;
12593;SDS011;6362;50.208;9.182;2022-09-16T00:28:35;4.15;;;1.10;;
12593;SDS011;6362;50.208;9.182;2022-09-16T00:31:01;9.27;;;1.30;;
12593;SDS011;6362;50.208;9.182;2022-09-16T00:33:27;4.28;;;1.00;;
12593;SDS011;6362;50.208;9.182;2022-09-16T00:36:03;3.15;;;1.20;;
12593;SDS011;6362;50.208;9.182;2022-09-16T00:38:29;4.47;;;1.20;;
12593;SDS011;6362;50.208;9.182;2022-09-16T00:40:55;5.43;;;1.30;;
12593;SDS011;6362;50.208;9.182;2022-09-16T00:43:20;4.55;;;1.30;;
12593;SDS011;6362;50.208;9.182;2022-09-16T00:45:50;3.80;;;1.00;;
12593;SDS011;6362;50.208;9.182;2022-09-16T00:48:29;4.65;;;1.50;;
12593;SDS011;6362;50.208;9.182;2022-09-16T00:50:58;3.00;;;1.10;;
12593;SDS011;6362;50.208;9.182;2022-09-16T00:53:28;5.85;;;1.30;;
12593;SDS011;6362;50.208;9.182;2022-09-16T00:56:00;3.00;;;1.10;;
12593;SDS011;6362;50.208;9.182;2022-09-16T00:58:34;4.20;;;1.08;;
12593;SDS011;6362;50.208;9.182;2022-09-16T01:01:00;7.40;;;1.40;;
12593;SDS011;6362;50.208;9.182;2022-09-16T01:03:29;6.10;;;1.30;;
12593;SDS011;6362;50.208;9.182;2022-09-16T01:05:57;7.13;;;1.20;;
12593;SDS011;6362;50.208;9.182;2022-09-16T01:08:22;3.17;;;0.98;;
12593;SDS011;6362;50.208;9.182;2022-09-16T01:10:48;5.10;;;1.15;;
12593;SDS011;6362;50.208;9.182;2022-09-16T01:13:14;6.65;;;1.30;;
12593;SDS011;6362;50.208;9.182;2022-09-16T01:30:05;8.07;;;1.13;;
12593;SDS011;6362;50.208;9.182;2022-09-16T01:35:32;3.03;;;1.10;;
12593;SDS011;6362;50.208;9.182;2022-09-16T01:41:17;4.82;;;1.10;;
12593;SDS011;6362;50.208;9.182;2022-09-16T01:46:50;5.00;;;1.00;;
12593;SDS011;6362;50.208;9.182;2022-09-16T01:51:49;2.10;;;0.90;;
12593;SDS011;6362;50.208;9.182;2022-09-16T01:55:01;8.07;;;1.00;;
12593;SDS011;6362;50.208;9.182;2022-09-16T01:57:45;2.53;;;0.88;;
12593;SDS011;6362;50.208;9.182;2022-09-16T02:00:13;6.07;;;1.38;;
12593;SDS011;6362;50.208;9.182;2022-09-16T02:02:50;4.97;;;1.00;;
12593;SDS011;6362;50.208;9.182;2022-09-16T02:05:24;2.83;;;0.80;;
12593;SDS011;6362;50.208;9.182;2022-09-16T02:10:29;4.13;;;0.88;;
12593;SDS011;6362;50.208;9.182;2022-09-16T02:13:03;7.30;;;1.23;;
12593;SDS011;6362;50.208;9.182;2022-09-16T02:15:33;3.50;;;0.70;;
12593;SDS011;6362;50.208;9.182;2022-09-16T02:18:09;4.72;;;0.93;;
12593;SDS011;6362;50.208;9.182;2022-09-16T02:20:39;3.92;;;0.95;;
12593;SDS011;6362;50.208;9.182;2022-09-16T02:23:22;2.92;;;1.20;;
12593;SDS011;6362;50.208;9.182;2022-09-16T02:25:53;5.72;;;1.10;;
12593;SDS011;6362;50.208;9.182;2022-09-16T02:28:28;2.65;;;0.90;;
12593;SDS011;6362;50.208;9.182;2022-09-16T02:30:59;2.33;;;0.82;;
12593;SDS011;6362;50.208;9.182;2022-09-16T02:33:32;4.28;;;1.15;;
12593;SDS011;6362;50.208;9.182;2022-09-16T02:36:04;5.35;;;0.90;;
12593;SDS011;6362;50.208;9.182;2022-09-16T02:38:37;2.75;;;0.80;;
12593;SDS011;6362;50.208;9.182;2022-09-16T02:41:07;6.70;;;1.15;;
12593;SDS011;6362;50.208;9.182;2022-09-16T02:43:38;4.28;;;0.98;;
12593;SDS011;6362;50.208;9.182;2022-09-16T02:48:52;4.05;;;0.90;;
12593;SDS011;6362;50.208;9.182;2022-09-16T02:51:36;2.10;;;0.90;;
12593;SDS011;6362;50.208;9.182;2022-09-16T02:54:11;6.10;;;1.25;;
12593;SDS011;6362;50.208;9.182;2022-09-16T02:57:03;4.30;;;0.80;;
12593;SDS011;6362;50.208;9.182;2022-09-16T02:59:29;3.38;;;0.90;;
12593;SDS011;6362;50.208;9.182;2022-09-16T03:01:57;3.88;;;1.10;;
12593;SDS011;6362;50.208;9.182;2022-09-16T03:04:23;2.90;;;0.82;;
12593;SDS011;6362;50.208;9.182;2022-09-16T03:06:49;4.45;;;0.75;;
12593;SDS011;6362;50.208;9.182;2022-09-16T03:09:14;4.85;;;0.90;;
12593;SDS011;6362;50.208;9.182;2022-09-16T03:14:27;2.75;;;0.80;;
12593;SDS011;6362;50.208;9.182;2022-09-16T03:19:59;2.42;;;0.70;;
12593;SDS011;6362;50.208;9.182;2022-09-16T03:28:20;4.82;;;0.80;;
12593;SDS011;6362;50.208;9.182;2022-09-16T03:31:06;2.92;;;0.80;;
12593;SDS011;6362;50.208;9.182;2022-09-16T03:33:45;4.43;;;1.58;;
12593;SDS011;6362;50.208;9.182;2022-09-16T03:36:16;5.80;;;0.80;;
12593;SDS011;6362;50.208;9.182;2022-09-16T03:38:46;5.45;;;1.30;;
12593;SDS011;6362;50.208;9.182;2022-09-16T03:41:13;1.55;;;0.70;;
12593;SDS011;6362;50.208;9.182;2022-09-16T03:43:50;5.30;;;0.90;;
12593;SDS011;6362;50.208;9.182;2022-09-16T03:46:16;2.38;;;0.80;;
12593;SDS011;6362;50.208;9.182;2022-09-16T03:48:42;3.28;;;0.80;;
12593;SDS011;6362;50.208;9.182;2022-09-16T03:51:07;2.20;;;0.60;;
12593;SDS011;6362;50.208;9.182;2022-09-16T03:53:32;2.95;;;1.15;;
12593;SDS011;6362;50.208;9.182;2022-09-16T03:55:58;1.33;;;0.70;;
12593;SDS011;6362;50.208;9.182;2022-09-16T03:58:23;1.90;;;0.60;;
12593;SDS011;6362;50.208;9.182;2022-09-16T04:00:49;2.97;;;0.70;;
12593;SDS011;6362;50.208;9.182;2022-09-16T04:03:18;3.97;;;0.90;;
12593;SDS011;6362;50.208;9.182;2022-09-16T04:05:43;5.22;;;0.85;;
12593;SDS011;6362;50.208;9.182;2022-09-16T04:08:08;4.95;;;0.80;;
12593;SDS011;6362;50.208;9.182;2022-09-16T04:10:34;2.55;;;0.95;;
12593;SDS011;6362;50.208;9.182;2022-09-16T04:12:59;3.22;;;0.65;;
12593;SDS011;6362;50.208;9.182;2022-09-16T04:15:25;3.28;;;0.82;;
12593;SDS011;6362;50.208;9.182;2022-09-16T04:17:50;3.55;;;0.80;;
12593;SDS011;6362;50.208;9.182;2022-09-16T04:20:16;3.55;;;0.90;;
12593;SDS011;6362;50.208;9.182;2022-09-16T04:22:41;4.40;;;0.88;;
12593;SDS011;6362;50.208;9.182;2022-09-16T04:25:07;3.67;;;0.80;;
12593;SDS011;6362;50.208;9.182;2022-09-16T04:27:33;2.97;;;1.10;;
12593;SDS011;6362;50.208;9.182;2022-09-16T04:29:58;2.92;;;0.80;;
12593;SDS011;6362;50.208;9.182;2022-09-16T04:32:23;5.93;;;1.60;;
12593;SDS011;6362;50.208;9.182;2022-09-16T04:34:49;5.32;;;0.90;;
12593;SDS011;6362;50.208;9.182;2022-09-16T04:37:14;3.70;;;0.88;;
12593;SDS011;6362;50.208;9.182;2022-09-16T04:39:40;7.80;;;1.15;;
12593;SDS011;6362;50.208;9.182;2022-09-16T04:42:05;4.28;;;1.00;;
12593;SDS011;6362;50.208;9.182;2022-09-16T04:44:31;5.53;;;1.25;;
12593;SDS011;6362;50.208;9.182;2022-09-16T04:46:56;4.13;;;0.80;;
12593;SDS011;6362;50.208;9.182;2022-09-16T04:49:22;2.55;;;0.80;;
12593;SDS011;6362;50.208;9.182;2022-09-16T04:51:48;3.45;;;1.38;;
12593;SDS011;6362;50.208;9.182;2022-09-16T04:54:16;3.47;;;0.98;;
12593;SDS011;6362;50.208;9.182;2022-09-16T04:56:41;4.93;;;0.80;;
12593;SDS011;6362;50.208;9.182;2022-09-16T04:59:08;5.40;;;1.02;;
12593;SDS011;6362;50.208;9.182;2022-09-16T05:01:36;2.33;;;1.05;;
12593;SDS011;6362;50.208;9.182;2022-09-16T05:04:03;3.80;;;1.10;;
12593;SDS011;6362;50.208;9.182;2022-09-16T05:06:31;8.40;;;1.15;;
12593;SDS011;6362;50.208;9.182;2022-09-16T05:08:59;3.55;;;1.08;;
12593;SDS011;6362;50.208;9.182;2022-09-16T05:11:26;4.30;;;0.90;;
12593;SDS011;6362;50.208;9.182;2022-09-16T05:13:53;4.38;;;1.05;;
12593;SDS011;6362;50.208;9.182;2022-09-16T05:16:22;4.28;;;1.25;;
12593;SDS011;6362;50.208;9.182;2022-09-16T05:18:49;5.13;;;1.23;;
12593;SDS011;6362;50.208;9.182;2022-09-16T05:21:16;7.15;;;2.05;;
12593;SDS011;6362;50.208;9.182;2022-09-16T05:23:44;6.22;;;2.10;;
12593;SDS011;6362;50.208;9.182;2022-09-16T05:26:11;4.80;;;1.23;;
12593;SDS011;6362;50.208;9.182;2022-09-16T05:28:38;5.25;;;1.27;;
12593;SDS011;6362;50.208;9.182;2022-09-16T05:31:14;5.97;;;1.00;;
12593;SDS011;6362;50.208;9.182;2022-09-16T05:36:36;2.90;;;1.10;;
12593;SDS011;6362;50.208;9.182;2022-09-16T05:39:03;2.67;;;1.10;;
12593;SDS011;6362;50.208;9.182;2022-09-16T05:41:29;4.68;;;1.10;;
12593;SDS011;6362;50.208;9.182;2022-09-16T05:43:58;5.15;;;1.10;;
12593;SDS011;6362;50.208;9.182;2022-09-16T05:46:25;10.98;;;1.30;;
12593;SDS011;6362;50.208;9.182;2022-09-16T05:48:51;3.55;;;1.10;;
12593;SDS011;6362;50.208;9.182;2022-09-16T05:51:18;3.53;;;1.10;;
12593;SDS011;6362;50.208;9.182;2022-09-16T05:53:45;4.45;;;1.10;;
12593;SDS011;6362;50.208;9.182;2022-09-16T05:56:13;5.18;;;1.20;;
12593;SDS011;6362;50.208;9.182;2022-09-16T05:58:43;8.23;;;1.30;;
12593;SDS011;6362;50.208;9.182;2022-09-16T06:01:14;7.28;;;1.00;;
12593;SDS011;6362;50.208;9.182;2022-09-16T06:03:42;7.80;;;1.27;;
12593;SDS011;6362;50.208;9.182;2022-09-16T06:06:12;7.32;;;1.00;;
12593;SDS011;6362;50.208;9.182;2022-09-16T06:08:48;4.72;;;1.55;;
12593;SDS011;6362;50.208;9.182;2022-09-16T06:11:15;4.25;;;1.05;;
12593;SDS011;6362;50.208;9.182;2022-09-16T06:13:40;3.45;;;1.23;;
12593;SDS011;6362;50.208;9.182;2022-09-16T06:16:06;3.55;;;1.00;;
12593;SDS011;6362;50.208;9.182;2022-09-16T06:18:33;4.10;;;0.90;;
12593;SDS011;6362;50.208;9.182;2022-09-16T06:21:07;4.65;;;1.13;;
12593;SDS011;6362;50.208;9.182;2022-09-16T06:23:35;4.45;;;1.10;;
12593;SDS011;6362;50.208;9.182;2022-09-16T06:26:03;2.47;;;1.00;;
12593;SDS011;6362;50.208;9.182;2022-09-16T06:28:30;3.78;;;0.95;;
12593;SDS011;6362;50.208;9.182;2022-09-16T06:31:03;4.82;;;1.42;;
12593;SDS011;6362;50.208;9.182;2022-09-16T06:33:32;2.83;;;1.00;;
12593;SDS011;6362;50.208;9.182;2022-09-16T06:36:03;6.00;;;1.20;;
12593;SDS011;6362;50.208;9.182;2022-09-16T06:38:33;6.05;;;1.40;;
12593;SDS011;6362;50.208;9.182;2022-09-16T06:41:02;3.88;;;1.30;;
12593;SDS011;6362;50.208;9.182;2022-09-16T06:43:29;6.20;;;1.45;;
12593;SDS011;6362;50.208;9.182;2022-09-16T06:45:58;8.50;;;1.35;;
12593;SDS011;6362;50.208;9.182;2022-09-16T06:48:26;4.80;;;1.40;;
12593;SDS011;6362;50.208;9.182;2022-09-16T06:51:35;6.95;;;1.52;;
12593;SDS011;6362;50.208;9.182;2022-09-16T06:53:45;6.75;;;1.40;;
12593;SDS011;6362;50.208;9.182;2022-09-16T06:56:12;4.55;;;1.38;;
12593;SDS011;6362;50.208;9.182;2022-09-16T06:58:40;5.10;;;1.20;;
12593;SDS011;6362;50.208;9.182;2022-09-16T07:03:36;7.28;;;1.30;;
12593;SDS011;6362;50.208;9.182;2022-09-16T07:06:02;7.45;;;1.33;;
12593;SDS011;6362;50.208;9.182;2022-09-16T07:08:28;7.82;;;1.58;;
12593;SDS011;6362;50.208;9.182;2022-09-16T07:10:58;5.82;;;1.63;;
12593;SDS011;6362;50.208;9.182;2022-09-16T07:13:28;7.03;;;1.60;;
12593;SDS011;6362;50.208;9.182;2022-09-16T07:15:53;9.63;;;1.80;;
12593;SDS011;6362;50.208;9.182;2022-09-16T07:18:22;5.32;;;1.60;;
12593;SDS011;6362;50.208;9.182;2022-09-16T07:20:48;6.95;;;1.42;;
12593;SDS011;6362;50.208;9.182;2022-09-16T07:23:13;4.38;;;1.50;;
12593;SDS011;6362;50.208;9.182;2022-09-16T07:25:39;6.07;;;1.52;;
12593;SDS011;6362;50.208;9.182;2022-09-16T07:28:04;13.38;;;1.58;;
12593;SDS011;6362;50.208;9.182;2022-09-16T07:30:29;6.88;;;1.42;;
12593;SDS011;6362;50.208;9.182;2022-09-16T07:32:58;6.30;;;1.60;;
12593;SDS011;6362;50.208;9.182;2022-09-16T07:35:23;7.00;;;1.65;;
12593;SDS011;6362;50.208;9.182;2022-09-16T07:37:49;7.70;;;1.52;;
12593;SDS011;6362;50.208;9.182;2022-09-16T07:40:14;6.22;;;1.20;;
12593;SDS011;6362;50.208;9.182;2022-09-16T07:42:41;4.55;;;1.30;;
12593;SDS011;6362;50.208;9.182;2022-09-16T07:45:07;7.53;;;1.40;;
12593;SDS011;6362;50.208;9.182;2022-09-16T07:47:33;9.60;;;1.40;;
12593;SDS011;6362;50.208;9.182;2022-09-16T07:49:58;5.30;;;1.40;;
12593;SDS011;6362;50.208;9.182;2022-09-16T07:52:24;6.55;;;1.50;;
12593;SDS011;6362;50.208;9.182;2022-09-16T07:54:53;7.28;;;1.35;;
12593;SDS011;6362;50.208;9.182;2022-09-16T07:57:19;6.32;;;1.38;;
12593;SDS011;6362;50.208;9.182;2022-09-16T07:59:46;5.78;;;1.48;;
12593;SDS011;6362;50.208;9.182;2022-09-16T08:02:11;5.00;;;1.38;;
12593;SDS011;6362;50.208;9.182;2022-09-16T08:04:37;5.30;;;1.10;;
12593;SDS011;6362;50.208;9.182;2022-09-16T08:07:02;8.60;;;1.30;;
12593;SDS011;6362;50.208;9.182;2022-09-16T08:09:29;7.50;;;1.55;;
12593;SDS011;6362;50.208;9.182;2022-09-16T08:11:54;5.22;;;1.30;;
12593;SDS011;6362;50.208;9.182;2022-09-16T08:14:20;4.43;;;1.35;;
12593;SDS011;6362;50.208;9.182;2022-09-16T08:16:45;5.65;;;1.23;;
12593;SDS011;6362;50.208;9.182;2022-09-16T08:19:15;10.43;;;1.33;;
12593;SDS011;6362;50.208;9.182;2022-09-16T08:21:41;7.38;;;2.15;;
12593;SDS011;6362;50.208;9.182;2022-09-16T08:24:08;7.50;;;1.40;;
12593;SDS011;6362;50.208;9.182;2022-09-16T08:26:34;3.88;;;1.10;;
12593;SDS011;6362;50.208;9.182;2022-09-16T08:29:00;3.50;;;1.15;;
12593;SDS011;6362;50.208;9.182;2022-09-16T08:31:25;7.15;;;1.30;;
12593;SDS011;6362;50.208;9.182;2022-09-16T08:33:51;8.48;;;1.10;;
12593;SDS011;6362;50.208;9.182;2022-09-16T08:36:18;5.75;;;0.98;;
12593;SDS011;6362;50.208;9.182;2022-09-16T08:38:49;3.30;;;0.93;;
12593;SDS011;6362;50.208;9.182;2022-09-16T08:48:57;6.07;;;1.00;;
12593;SDS011;6362;50.208;9.182;2022-09-16T08:51:35;5.82;;;1.20;;
12593;SDS011;6362;50.208;9.182;2022-09-16T08:54:03;6.38;;;1.13;;
12593;SDS011;6362;50.208;9.182;2022-09-16T08:56:46;5.68;;;0.95;;
12593;SDS011;6362;50.208;9.182;2022-09-16T08:59:14;4.15;;;1.13;;
12593;SDS011;6362;50.208;9.182;2022-09-16T09:04:29;2.72;;;0.88;;
12593;SDS011;6362;50.208;9.182;2022-09-16T09:23:26;8.00;;;1.58;;
12593;SDS011;6362;50.208;9.182;2022-09-16T09:26:20;6.63;;;1.40;;
12593;SDS011;6362;50.208;9.182;2022-09-16T09:33:57;4.53;;;1.50;;
12593;SDS011;6362;50.208;9.182;2022-09-16T09:39:35;4.32;;;1.40;;
12593;SDS011;6362;50.208;9.182;2022-09-16T09:41:59;4.65;;;1.10;;
12593;SDS011;6362;50.208;9.182;2022-09-16T09:44:36;6.57;;;1.20;;
12593;SDS011;6362;50.208;9.182;2022-09-16T09:47:11;4.75;;;1.23;;
12593;SDS011;6362;50.208;9.182;2022-09-16T09:49:48;2.58;;;0.93;;
12593;SDS011;6362;50.208;9.182;2022-09-16T09:52:31;5.00;;;1.40;;
12593;SDS011;6362;50.208;9.182;2022-09-16T09:55:12;4.30;;;1.40;;
12593;SDS011;6362;50.208;9.182;2022-09-16T09:58:16;4.47;;;1.10;;
12593;SDS011;6362;50.208;9.182;2022-09-16T10:00:40;4.20;;;1.00;;
12593;SDS011;6362;50.208;9.182;2022-09-16T10:03:09;6.93;;;1.30;;
12593;SDS011;6362;50.208;9.182;2022-09-16T10:05:37;4.28;;;1.20;;
12593;SDS011;6362;50.208;9.182;2022-09-16T10:08:26;5.35;;;1.20;;
12593;SDS011;6362;50.208;9.182;2022-09-16T10:10:53;3.15;;;1.05;;
12593;SDS011;6362;50.208;9.182;2022-09-16T10:13:21;4.68;;;1.10;;
12593;SDS011;6362;50.208;9.182;2022-09-16T10:15:48;3.85;;;0.90;;
12593;SDS011;6362;50.208;9.182;2022-09-16T10:18:25;3.08;;;0.85;;
12593;SDS011;6362;50.208;9.182;2022-09-16T10:21:04;5.28;;;1.10;;
12593;SDS011;6362;50.208;9.182;2022-09-16T10:23:38;4.72;;;0.88;;
12593;SDS011;6362;50.208;9.182;2022-09-16T10:28:31;6.32;;;1.00;;
12593;SDS011;6362;50.208;9.182;2022-09-16T10:30:57;5.20;;;0.90;;
12593;SDS011;6362;50.208;9.182;2022-09-16T10:33:26;5.03;;;0.90;;
12593;SDS011;6362;50.208;9.182;2022-09-16T10:35:56;6.18;;;0.77;;
12593;SDS011;6362;50.208;9.182;2022-09-16T10:38:38;4.32;;;0.82;;
12593;SDS011;6362;50.208;9.182;2022-09-16T10:41:08;4.28;;;0.80;;
12593;SDS011;6362;50.208;9.182;2022-09-16T10:43:51;4.00;;;0.80;;
12593;SDS011;6362;50.208;9.182;2022-09-16T10:46:19;3.70;;;0.88;;
12593;SDS011;6362;50.208;9.182;2022-09-16T10:48:46;3.80;;;0.70;;
12593;SDS011;6362;50.208;9.182;2022-09-16T10:51:23;3.80;;;0.80;;
12593;SDS011;6362;50.208;9.182;2022-09-16T10:53:52;5.47;;;0.93;;
12593;SDS011;6362;50.208;9.182;2022-09-16T10:56:21;5.97;;;0.82;;
12593;SDS011;6362;50.208;9.182;2022-09-16T10:58:48;8.15;;;0.93;;
12593;SDS011;6362;50.208;9.182;2022-09-16T11:01:36;8.48;;;1.10;;
12593;SDS011;6362;50.208;9.182;2022-09-16T11:04:47;4.00;;;1.00;;
12593;SDS011;6362;50.208;9.182;2022-09-16T11:07:29;7.05;;;1.38;;
12593;SDS011;6362;50.208;9.182;2022-09-16T11:10:19;4.40;;;0.98;;
12593;SDS011;6362;50.208;9.182;2022-09-16T11:16:14;3.53;;;0.80;;
12593;SDS011;6362;50.208;9.182;2022-09-16T11:24:18;3.95;;;0.80;;
12593;SDS011;6362;50.208;9.182;2022-09-16T11:30:02;2.30;;;0.98;;
12593;SDS011;6362;50.208;9.182;2022-09-16T11:32:36;2.70;;;0.80;;
12593;SDS011;6362;50.208;9.182;2022-09-16T11:40:33;3.17;;;0.63;;
12593;SDS011;6362;50.208;9.182;2022-09-16T11:43:21;4.07;;;0.63;;
12593;SDS011;6362;50.208;9.182;2022-09-16T11:45:57;3.85;;;0.60;;
12593;SDS011;6362;50.208;9.182;2022-09-16T11:51:29;3.40;;;0.63;;
12593;SDS011;6362;50.208;9.182;2022-09-16T11:57:14;5.10;;;0.57;;
12593;SDS011;6362;50.208;9.182;2022-09-16T12:04:56;1.20;;;0.50;;
12593;SDS011;6362;50.208;9.182;2022-09-16T12:13:00;3.22;;;0.45;;
12593;SDS011;6362;50.208;9.182;2022-09-16T12:15:36;3.13;;;0.50;;
12593;SDS011;6362;50.208;9.182;2022-09-16T12:18:08;1.95;;;0.50;;
12593;SDS011;6362;50.208;9.182;2022-09-16T12:20:40;1.85;;;0.47;;
12593;SDS011;6362;50.208;9.182;2022-09-16T12:23:17;2.80;;;0.60;;
12593;SDS011;6362;50.208;9.182;2022-09-16T12:28:44;2.08;;;0.80;;
12593;SDS011;6362;50.208;9.182;2022-09-16T12:31:23;3.03;;;0.80;;
12593;SDS011;6362;50.208;9.182;2022-09-16T12:34:09;3.72;;;0.80;;
12593;SDS011;6362;50.208;9.182;2022-09-16T12:36:39;2.38;;;0.90;;
12593;SDS011;6362;50.208;9.182;2022-09-16T12:39:08;7.55;;;1.35;;
12593;SDS011;6362;50.208;9.182;2022-09-16T12:55:06;4.68;;;0.90;;
12593;SDS011;6362;50.208;9.182;2022-09-16T13:00:40;2.10;;;0.70;;
12593;SDS011;6362;50.208;9.182;2022-09-16T13:03:17;3.75;;;0.70;;
12593;SDS011;6362;50.208;9.182;2022-09-16T13:05:46;2.47;;;0.68;;
12593;SDS011;6362;50.208;9.182;2022-09-16T13:08:22;1.92;;;0.50;;
12593;SDS011;6362;50.208;9.182;2022-09-16T13:10:58;2.25;;;0.60;;
12593;SDS011;6362;50.208;9.182;2022-09-16T13:13:30;2.45;;;0.70;;
12593;SDS011;6362;50.208;9.182;2022-09-16T13:16:01;2.47;;;0.70;;
12593;SDS011;6362;50.208;9.182;2022-09-16T13:18:44;2.42;;;0.50;;
12593;SDS011;6362;50.208;9.182;2022-09-16T13:24:03;2.17;;;0.40;;
12593;SDS011;6362;50.208;9.182;2022-09-16T13:26:38;0.75;;;0.28;;
12593;SDS011;6362;50.208;9.182;2022-09-16T13:29:22;1.35;;;0.50;;
12593;SDS011;6362;50.208;9.182;2022-09-16T13:31:49;2.13;;;0.50;;
12593;SDS011;6362;50.208;9.182;2022-09-16T13:34:15;3.05;;;0.30;;
12593;SDS011;6362;50.208;9.182;2022-09-16T13:36:42;2.80;;;0.70;;
12593;SDS011;6362;50.208;9.182;2022-09-16T13:39:11;2.88;;;0.40;;
12593;SDS011;6362;50.208;9.182;2022-09-16T13:41:41;2.70;;;0.60;;
12593;SDS011;6362;50.208;9.182;2022-09-16T13:46:54;2.05;;;0.50;;
12593;SDS011;6362;50.208;9.182;2022-09-16T13:49:33;3.97;;;0.43;;
12593;SDS011;6362;50.208;9.182;2022-09-16T13:52:11;2.22;;;0.45;;
12593;SDS011;6362;50.208;9.182;2022-09-16T13:54:41;1.17;;;0.38;;
12593;SDS011;6362;50.208;9.182;2022-09-16T13:57:26;1.60;;;0.52;;
12593;SDS011;6362;50.208;9.182;2022-09-16T14:08:01;1.95;;;0.70;;
12593;SDS011;6362;50.208;9.182;2022-09-16T14:13:47;2.95;;;0.68;;
12593;SDS011;6362;50.208;9.182;2022-09-16T14:16:20;3.75;;;0.60;;
12593;SDS011;6362;50.208;9.182;2022-09-16T14:21:29;2.33;;;0.68;;
12593;SDS011;6362;50.208;9.182;2022-09-16T14:24:05;3.10;;;0.70;;
12593;SDS011;6362;50.208;9.182;2022-09-16T14:26:32;1.90;;;0.60;;
12593;SDS011;6362;50.208;9.182;2022-09-16T14:29:02;2.30;;;0.60;;
12593;SDS011;6362;50.208;9.182;2022-09-16T14:31:29;5.13;;;0.85;;
12593;SDS011;6362;50.208;9.182;2022-09-16T14:33:58;1.27;;;0.50;;
12593;SDS011;6362;50.208;9.182;2022-09-16T14:36:29;1.60;;;0.70;;
12593;SDS011;6362;50.208;9.182;2022-09-16T14:39:02;1.70;;;0.60;;
12593;SDS011;6362;50.208;9.182;2022-09-16T14:41:38;2.33;;;0.70;;
12593;SDS011;6362;50.208;9.182;2022-09-16T14:46:37;3.22;;;0.70;;
12593;SDS011;6362;50.208;9.182;2022-09-16T14:49:12;2.75;;;0.70;;
12593;SDS011;6362;50.208;9.182;2022-09-16T14:51:42;4.13;;;0.70;;
12593;SDS011;6362;50.208;9.182;2022-09-16T14:54:15;1.67;;;0.70;;
12593;SDS011;6362;50.208;9.182;2022-09-16T14:56:52;5.20;;;0.85;;
12593;SDS011;6362;50.208;9.182;2022-09-16T14:59:23;2.90;;;0.70;;
12593;SDS011;6362;50.208;9.182;2022-09-16T15:01:56;3.13;;;0.63;;
12593;SDS011;6362;50.208;9.182;2022-09-16T15:04:26;1.20;;;0.60;;
12593;SDS011;6362;50.208;9.182;2022-09-16T15:06:57;2.47;;;0.80;;
12593;SDS011;6362;50.208;9.182;2022-09-16T15:12:24;2.70;;;0.70;;
12593;SDS011;6362;50.208;9.182;2022-09-16T15:14:53;2.85;;;0.75;;
12593;SDS011;6362;50.208;9.182;2022-09-16T15:17:19;1.95;;;0.90;;
12593;SDS011;6362;50.208;9.182;2022-09-16T15:19:56;1.50;;;0.55;;
12593;SDS011;6362;50.208;9.182;2022-09-16T15:22:23;2.90;;;0.68;;
12593;SDS011;6362;50.208;9.182;2022-09-16T15:24:51;3.45;;;0.73;;
12593;SDS011;6362;50.208;9.182;2022-09-16T15:27:20;4.25;;;0.80;;
12593;SDS011;6362;50.208;9.182;2022-09-16T15:29:57;2.35;;;0.65;;
12593;SDS011;6362;50.208;9.182;2022-09-16T15:32:25;2.90;;;0.70;;
12593;SDS011;6362;50.208;9.182;2022-09-16T15:37:34;1.90;;;0.60;;
12593;SDS011;6362;50.208;9.182;2022-09-16T15:40:10;3.92;;;0.73;;
12593;SDS011;6362;50.208;9.182;2022-09-16T15:42:42;2.63;;;0.50;;
12593;SDS011;6362;50.208;9.182;2022-09-16T15:45:12;3.47;;;0.45;;
12593;SDS011;6362;50.208;9.182;2022-09-16T15:47:49;5.47;;;0.40;;
12593;SDS011;6362;50.208;9.182;2022-09-16T15:50:20;3.15;;;0.60;;
12593;SDS011;6362;50.208;9.182;2022-09-16T15:55:28;6.45;;;0.60;;
12593;SDS011;6362;50.208;9.182;2022-09-16T15:58:02;2.03;;;0.60;;
12593;SDS011;6362;50.208;9.182;2022-09-16T16:03:52;2.60;;;0.60;;
12593;SDS011;6362;50.208;9.182;2022-09-16T16:06:23;2.22;;;0.68;;
12593;SDS011;6362;50.208;9.182;2022-09-16T16:09:21;0.82;;;0.47;;
12593;SDS011;6362;50.208;9.182;2022-09-16T16:11:55;1.52;;;0.60;;
12593;SDS011;6362;50.208;9.182;2022-09-16T16:14:23;1.88;;;0.60;;
12593;SDS011;6362;50.208;9.182;2022-09-16T16:16:51;2.78;;;0.82;;
12593;SDS011;6362;50.208;9.182;2022-09-16T16:19:17;1.95;;;0.80;;
12593;SDS011;6362;50.208;9.182;2022-09-16T16:21:43;1.20;;;0.40;;
12593;SDS011;6362;50.208;9.182;2022-09-16T16:24:13;1.65;;;0.40;;
12593;SDS011;6362;50.208;9.182;2022-09-16T16:26:42;1.10;;;0.40;;
12593;SDS011;6362;50.208;9.182;2022-09-16T16:29:07;2.17;;;0.40;;
12593;SDS011;6362;50.208;9.182;2022-09-16T16:31:33;2.08;;;0.40;;
12593;SDS011;6362;50.208;9.182;2022-09-16T16:34:00;2.00;;;0.40;;
12593;SDS011;6362;50.208;9.182;2022-09-16T16:36:26;1.15;;;0.45;;
12593;SDS011;6362;50.208;9.182;2022-09-16T16:38:52;0.70;;;0.30;;
12593;SDS011;6362;50.208;9.182;2022-09-16T16:41:21;2.83;;;0.40;;
12593;SDS011;6362;50.208;9.182;2022-09-16T16:43:48;3.03;;;0.50;;
12593;SDS011;6362;50.208;9.182;2022-09-16T16:46:14;1.58;;;0.50;;
12593;SDS011;6362;50.208;9.182;2022-09-16T16:48:41;0.82;;;0.40;;
12593;SDS011;6362;50.208;9.182;2022-09-16T16:51:09;2.22;;;0.40;;
12593;SDS011;6362;50.208;9.182;2022-09-16T16:53:36;1.13;;;0.38;;
12593;SDS011;6362;50.208;9.182;2022-09-16T16:56:07;1.83;;;0.50;;
12593;SDS011;6362;50.208;9.182;2022-09-16T16:58:35;0.98;;;0.35;;
12593;SDS011;6362;50.208;9.182;2022-09-16T17:01:08;0.90;;;0.38;;
12593;SDS011;6362;50.208;9.182;2022-09-16T17:03:40;2.47;;;0.77;;
12593;SDS011;6362;50.208;9.182;2022-09-16T17:06:06;1.35;;;0.60;;
12593;SDS011;6362;50.208;9.182;2022-09-16T17:08:32;1.60;;;0.70;;
12593;SDS011;6362;50.208;9.182;2022-09-16T17:11:09;2.70;;;0.80;;
12593;SDS011;6362;50.208;9.182;2022-09-16T17:13:41;1.60;;;0.52;;
12593;SDS011;6362;50.208;9.182;2022-09-16T17:16:08;1.05;;;0.50;;
12593;SDS011;6362;50.208;9.182;2022-09-16T17:18:35;1.58;;;0.63;;
12593;SDS011;6362;50.208;9.182;2022-09-16T17:21:06;2.05;;;0.80;;
12593;SDS011;6362;50.208;9.182;2022-09-16T17:23:34;1.13;;;0.60;;
12593;SDS011;6362;50.208;9.182;2022-09-16T17:26:00;1.60;;;0.52;;
12593;SDS011;6362;50.208;9.182;2022-09-16T17:28:27;1.40;;;0.60;;
12593;SDS011;6362;50.208;9.182;2022-09-16T17:30:52;2.70;;;0.68;;
12593;SDS011;6362;50.208;9.182;2022-09-16T17:33:18;0.95;;;0.45;;
12593;SDS011;6362;50.208;9.182;2022-09-16T17:35:44;0.95;;;0.40;;
12593;SDS011;6362;50.208;9.182;2022-09-16T17:38:09;1.25;;;0.60;;
12593;SDS011;6362;50.208;9.182;2022-09-16T17:40:35;3.00;;;0.60;;
12593;SDS011;6362;50.208;9.182;2022-09-16T17:43:00;2.22;;;0.60;;
12593;SDS011;6362;50.208;9.182;2022-09-16T17:45:26;1.05;;;0.45;;
12593;SDS011;6362;50.208;9.182;2022-09-16T17:47:52;2.13;;;0.60;;
12593;SDS011;6362;50.208;9.182;2022-09-16T17:50:17;1.27;;;0.60;;
12593;SDS011;6362;50.208;9.182;2022-09-16T17:52:43;1.42;;;0.60;;
12593;SDS011;6362;50.208;9.182;2022-09-16T17:55:09;3.42;;;0.70;;
12593;SDS011;6362;50.208;9.182;2022-09-16T17:57:35;3.40;;;0.80;;
12593;SDS011;6362;50.208;9.182;2022-09-16T18:00:02;1.52;;;0.60;;
12593;SDS011;6362;50.208;9.182;2022-09-16T18:02:29;1.50;;;0.63;;
12593;SDS011;6362;50.208;9.182;2022-09-16T18:04:54;2.72;;;0.60;;
12593;SDS011;6362;50.208;9.182;2022-09-16T18:07:19;2.25;;;0.60;;
12593;SDS011;6362;50.208;9.182;2022-09-16T18:09:45;1.40;;;0.60;;
12593;SDS011;6362;50.208;9.182;2022-09-16T18:12:10;2.00;;;0.55;;